createdAt,value
2019-02-09T00:02:36.952Z,6.78
2019-02-09T00:06:41.376Z,6.79
2019-02-09T00:10:44.823Z,6.80
2019-02-09T00:14:48.268Z,6.81
2019-02-09T00:18:51.717Z,6.80
2019-02-09T00:22:55.167Z,6.72
2019-02-09T00:26:58.621Z,6.70
2019-02-09T00:31:02.086Z,6.71
2019-02-09T00:35:05.529Z,6.72
2019-02-09T00:39:08.984Z,6.67
2019-02-09T00:43:12.431Z,6.61
2019-02-09T00:47:15.881Z,6.56
2019-02-09T00:51:19.335Z,6.61
2019-02-09T00:55:22.765Z,6.67
2019-02-09T00:59:26.214Z,6.76
2019-02-09T01:03:29.662Z,6.83
2019-02-09T01:07:33.113Z,6.84
2019-02-09T01:11:36.556Z,6.81
2019-02-09T01:15:40.007Z,6.80
2019-02-09T01:19:43.488Z,6.76
2019-02-09T01:23:46.937Z,6.69
2019-02-09T01:27:50.397Z,6.62
2019-02-09T01:31:53.844Z,6.57
2019-02-09T01:35:57.297Z,6.43
2019-02-09T01:40:00.751Z,6.32
2019-02-09T01:44:04.217Z,6.21
2019-02-09T01:48:07.671Z,6.16
2019-02-09T01:52:11.108Z,6.13
2019-02-09T01:56:14.584Z,6.28
2019-02-09T02:00:18.035Z,6.31
2019-02-09T02:04:21.488Z,6.29
2019-02-09T02:08:24.933Z,6.24
2019-02-09T02:12:28.384Z,6.16
2019-02-09T02:16:31.832Z,6.09
2019-02-09T02:20:35.279Z,6.06
2019-02-09T02:24:38.733Z,6.00
2019-02-09T02:28:42.190Z,5.98
2019-02-09T02:32:45.639Z,5.93
2019-02-09T02:36:49.097Z,5.87
2019-02-09T02:40:52.595Z,5.82
2019-02-09T02:44:56.002Z,5.79
2019-02-09T02:48:59.459Z,5.91
2019-02-09T02:53:02.905Z,5.94
2019-02-09T02:57:06.365Z,5.95
2019-02-09T03:01:09.820Z,5.99
2019-02-09T03:05:13.262Z,5.97
2019-02-09T03:09:16.715Z,5.96
2019-02-09T03:13:20.155Z,5.92
2019-02-09T03:17:23.605Z,5.83
2019-02-09T03:21:27.058Z,5.75
2019-02-09T03:25:30.521Z,5.67
2019-02-09T03:29:33.954Z,5.58
2019-02-09T03:33:37.415Z,5.55
2019-02-09T03:37:40.857Z,5.69
2019-02-09T03:41:44.305Z,5.88
2019-02-09T03:45:47.759Z,6.11
2019-02-09T03:49:51.195Z,6.30
2019-02-09T03:53:54.654Z,6.40
2019-02-09T03:57:58.113Z,6.44
2019-02-09T04:02:02.631Z,6.48
2019-02-09T04:06:06.082Z,6.52
2019-02-09T04:10:09.525Z,6.53
2019-02-09T04:14:12.974Z,6.57
2019-02-09T04:18:16.431Z,6.58
2019-02-09T04:22:19.880Z,6.57
2019-02-09T04:26:23.339Z,6.54
2019-02-09T04:30:26.776Z,6.52
2019-02-09T04:34:30.230Z,6.52
2019-02-09T04:38:33.687Z,6.57
2019-02-09T04:42:37.143Z,6.58
2019-02-09T04:46:40.598Z,6.62
2019-02-09T04:50:44.033Z,6.63
2019-02-09T04:54:47.484Z,6.61
2019-02-09T04:58:50.934Z,6.63
2019-02-09T05:02:54.387Z,6.59
2019-02-09T05:06:57.833Z,6.56
2019-02-09T05:11:01.284Z,6.47
2019-02-09T05:15:04.746Z,6.40
2019-02-09T05:19:08.196Z,6.52
2019-02-09T05:23:11.654Z,6.55
2019-02-09T05:27:15.092Z,6.53
2019-02-09T05:31:23.098Z,6.47
2019-02-09T05:35:23.700Z,6.47
2019-02-09T05:39:27.153Z,6.55
2019-02-09T05:43:30.609Z,6.62
2019-02-09T05:47:34.051Z,6.74
2019-02-09T05:51:37.518Z,6.77
2019-02-09T05:55:40.962Z,6.69
2019-02-09T05:59:44.410Z,6.60
2019-02-09T06:03:47.863Z,6.51
2019-02-09T06:07:51.310Z,6.47
2019-02-09T06:11:54.758Z,6.42
2019-02-09T06:15:58.219Z,6.37
2019-02-09T06:20:01.666Z,6.35
2019-02-09T06:24:05.118Z,6.35
2019-02-09T06:28:08.559Z,6.43
2019-02-09T06:32:12.010Z,6.54
2019-02-09T06:36:15.482Z,6.62
2019-02-09T06:40:18.922Z,6.72
2019-02-09T06:44:22.373Z,6.80
2019-02-09T06:48:25.818Z,6.86
2019-02-09T06:52:29.268Z,6.94
2019-02-09T06:56:32.727Z,7.01
2019-02-09T07:00:36.186Z,7.07
2019-02-09T07:04:39.638Z,7.14
2019-02-09T07:08:43.084Z,7.17
2019-02-09T07:12:46.565Z,7.20
2019-02-09T07:16:50.014Z,7.23
2019-02-09T07:20:53.463Z,7.45
2019-02-09T07:24:56.923Z,7.50
2019-02-09T07:29:00.366Z,7.41
2019-02-09T07:33:03.821Z,7.37
2019-02-09T07:37:08.307Z,7.35
2019-02-09T07:41:11.761Z,7.34
2019-02-09T07:45:15.213Z,7.37
2019-02-09T07:49:18.647Z,7.43
2019-02-09T07:53:22.106Z,7.48
2019-02-09T07:57:25.558Z,7.54
2019-02-09T08:01:29.023Z,7.57
2019-02-09T08:05:32.473Z,7.61
2019-02-09T08:09:35.912Z,7.66
2019-02-09T08:13:39.371Z,7.71
2019-02-09T08:17:42.809Z,7.82
2019-02-09T08:21:46.269Z,7.88
2019-02-09T08:25:49.720Z,7.90
2019-02-09T08:29:53.158Z,7.91
2019-02-09T08:33:56.613Z,7.94
2019-02-09T08:38:00.060Z,8.07
2019-02-09T08:42:03.521Z,8.29
2019-02-09T08:46:06.971Z,8.53
2019-02-09T08:50:10.423Z,8.70
2019-02-09T08:54:13.875Z,9.20
2019-02-09T08:58:17.326Z,8.87
2019-02-09T09:02:20.975Z,8.63
2019-02-09T09:06:24.399Z,8.51
2019-02-09T09:10:27.854Z,8.51
2019-02-09T09:14:31.312Z,8.56
2019-02-09T09:18:34.765Z,8.75
2019-02-09T09:22:38.217Z,8.92
2019-02-09T09:26:41.667Z,9.02
2019-02-09T09:30:45.124Z,9.14
2019-02-09T09:34:48.573Z,9.33
2019-02-09T09:38:52.027Z,9.50
2019-02-09T09:42:55.482Z,9.62
2019-02-09T09:46:59.995Z,9.70
2019-02-09T09:51:03.448Z,9.69
2019-02-09T09:55:06.910Z,9.57
2019-02-09T09:59:10.355Z,9.50
2019-02-09T10:03:13.808Z,9.46
2019-02-09T10:07:17.263Z,9.49
2019-02-09T10:11:20.704Z,9.63
2019-02-09T10:15:24.160Z,9.87
2019-02-09T10:19:27.619Z,10.13
2019-02-09T10:23:31.075Z,10.29
2019-02-09T10:27:34.525Z,10.31
2019-02-09T10:31:37.994Z,10.26
2019-02-09T10:35:41.444Z,10.31
2019-02-09T10:39:44.906Z,10.32
2019-02-09T10:43:48.357Z,10.28
2019-02-09T10:47:51.807Z,10.30
2019-02-09T10:51:55.271Z,10.44
2019-02-09T10:55:58.742Z,10.60
2019-02-09T11:00:02.195Z,10.76
2019-02-09T11:04:05.640Z,10.77
2019-02-09T11:08:09.114Z,10.87
2019-02-09T11:12:12.595Z,10.77
2019-02-09T11:16:16.046Z,10.61
2019-02-09T11:20:19.524Z,10.54
2019-02-09T11:24:23.954Z,11.29
2019-02-09T11:28:27.427Z,11.66
2019-02-09T11:32:30.888Z,11.07
2019-02-09T11:36:34.374Z,10.67
2019-02-09T11:40:37.838Z,10.46
2019-02-09T11:44:41.447Z,10.41
2019-02-09T11:48:44.831Z,10.39
2019-02-09T11:52:48.290Z,10.37
2019-02-09T11:56:51.756Z,10.43
2019-02-09T12:00:55.211Z,10.46
2019-02-09T12:04:58.669Z,10.49
2019-02-09T12:09:02.131Z,10.63
2019-02-09T12:13:06.762Z,10.75
2019-02-09T12:17:10.231Z,10.85
2019-02-09T12:21:13.714Z,11.03
2019-02-09T12:25:17.166Z,11.09
2019-02-09T12:29:20.649Z,11.89
2019-02-09T12:33:24.129Z,12.68
2019-02-09T12:37:27.582Z,12.83
2019-02-09T12:41:31.071Z,12.30
2019-02-09T12:45:34.519Z,12.02
2019-02-09T12:49:37.984Z,11.73
2019-02-09T12:53:41.445Z,11.48
2019-02-09T12:57:44.906Z,11.35
2019-02-09T13:01:48.346Z,11.18
2019-02-09T13:05:51.823Z,11.07
2019-02-09T13:09:55.306Z,11.22
2019-02-09T13:13:58.766Z,11.34
2019-02-09T13:18:02.229Z,11.66
2019-02-09T13:22:05.685Z,13.20
2019-02-09T13:26:09.139Z,13.66
2019-02-09T13:30:12.603Z,12.76
2019-02-09T13:34:16.067Z,12.29
2019-02-09T13:38:19.536Z,12.03
2019-02-09T13:42:22.981Z,11.77
2019-02-09T13:46:26.446Z,11.68
2019-02-09T13:50:29.913Z,11.60
2019-02-09T13:54:33.381Z,11.59
2019-02-09T13:58:36.844Z,11.58
2019-02-09T14:02:40.288Z,11.49
2019-02-09T14:06:43.761Z,11.31
2019-02-09T14:10:47.209Z,11.19
2019-02-09T14:14:50.676Z,11.21
2019-02-09T14:18:54.139Z,11.17
2019-02-09T14:22:57.588Z,11.12
2019-02-09T14:27:01.050Z,11.05
2019-02-09T14:31:04.507Z,10.92
2019-02-09T14:35:07.969Z,10.87
2019-02-09T14:39:11.431Z,10.84
2019-02-09T14:43:14.880Z,10.81
2019-02-09T14:47:18.346Z,10.64
2019-02-09T14:51:21.814Z,10.54
2019-02-09T14:55:25.278Z,10.48
2019-02-09T14:59:28.748Z,10.38
2019-02-09T15:03:32.308Z,10.30
2019-02-09T15:07:35.740Z,10.28
2019-02-09T15:11:39.207Z,10.46
2019-02-09T15:15:42.671Z,10.36
2019-02-09T15:19:46.128Z,10.31
2019-02-09T15:23:49.581Z,10.29
2019-02-09T15:27:53.042Z,10.23
2019-02-09T15:31:56.513Z,10.14
2019-02-09T15:35:59.968Z,10.08
2019-02-09T15:40:03.425Z,9.92
2019-02-09T15:44:06.866Z,9.73
2019-02-09T15:48:10.337Z,9.60
2019-02-09T15:52:13.789Z,9.48
2019-02-09T15:56:17.242Z,9.35
2019-02-09T16:00:20.693Z,9.20
2019-02-09T16:04:24.138Z,9.13
2019-02-09T16:08:27.597Z,9.05
2019-02-09T16:12:31.050Z,8.98
2019-02-09T16:16:35.580Z,8.87
2019-02-09T16:20:39.033Z,8.81
2019-02-09T16:24:42.480Z,8.73
2019-02-09T16:28:45.950Z,8.66
2019-02-09T16:32:49.405Z,8.61
2019-02-09T16:36:52.862Z,8.55
2019-02-09T16:40:56.306Z,8.50
2019-02-09T16:44:59.761Z,8.46
2019-02-09T16:49:03.231Z,8.43
2019-02-09T16:53:06.688Z,8.41
2019-02-09T16:57:10.145Z,8.36
2019-02-09T17:01:13.591Z,8.31
2019-02-09T17:05:17.051Z,8.26
2019-02-09T17:09:20.512Z,8.20
2019-02-09T17:13:23.982Z,8.16
2019-02-09T17:17:27.437Z,8.17
2019-02-09T17:21:30.883Z,8.22
2019-02-09T17:25:34.340Z,8.23
2019-02-09T17:29:39.285Z,8.17
2019-02-09T17:33:42.848Z,8.13
2019-02-09T17:37:46.308Z,8.10
2019-02-09T17:41:49.757Z,8.09
2019-02-09T17:45:53.207Z,8.10
2019-02-09T17:49:56.670Z,8.05
2019-02-09T17:54:00.124Z,8.01
2019-02-09T17:58:03.579Z,7.94
2019-02-09T18:02:07.025Z,7.89
2019-02-09T18:06:10.488Z,7.87
2019-02-09T18:10:13.941Z,7.91
2019-02-09T18:14:17.393Z,7.94
2019-02-09T18:18:20.843Z,7.89
2019-02-09T18:22:24.291Z,7.82
2019-02-09T18:26:27.748Z,7.75
2019-02-09T18:30:31.199Z,7.64
2019-02-09T18:34:34.650Z,7.60
2019-02-09T18:38:38.123Z,7.61
2019-02-09T18:42:41.577Z,7.64
2019-02-09T18:46:45.030Z,7.65
2019-02-09T18:50:48.484Z,7.63
2019-02-09T18:54:51.940Z,7.63
2019-02-09T18:58:55.394Z,7.73
2019-02-09T19:02:58.841Z,7.83
2019-02-09T19:07:03.377Z,7.93
2019-02-09T19:11:06.858Z,7.98
2019-02-09T19:15:10.326Z,8.03
2019-02-09T19:19:13.779Z,8.07
2019-02-09T19:23:17.239Z,8.11
2019-02-09T19:27:20.698Z,8.15
2019-02-09T19:31:24.172Z,8.22
2019-02-09T19:35:27.634Z,8.24
2019-02-09T19:39:31.084Z,8.26
2019-02-09T19:43:34.545Z,8.23
2019-02-09T19:47:38.008Z,8.17
2019-02-09T19:51:41.463Z,8.14
2019-02-09T19:55:44.926Z,8.01
2019-02-09T19:59:48.462Z,7.96
2019-02-09T20:03:51.877Z,8.04
2019-02-09T20:07:55.606Z,8.03
2019-02-09T20:11:59.180Z,8.01
2019-02-09T20:16:02.643Z,7.95
2019-02-09T20:20:06.088Z,7.89
2019-02-09T20:24:09.540Z,7.77
2019-02-09T20:28:12.996Z,7.64
2019-02-09T20:32:16.452Z,7.52
2019-02-09T20:36:19.915Z,7.39
2019-02-09T20:40:23.363Z,7.26
2019-02-09T20:44:26.823Z,7.12
2019-02-09T20:48:30.271Z,7.05
2019-02-09T20:52:33.728Z,6.99
2019-02-09T20:56:38.012Z,6.98
2019-02-09T21:00:41.467Z,6.95
2019-02-09T21:04:44.918Z,6.92
2019-02-09T21:08:48.379Z,6.89
2019-02-09T21:12:51.842Z,6.81
2019-02-09T21:16:55.303Z,6.75
2019-02-09T21:20:58.748Z,6.71
2019-02-09T21:25:02.202Z,6.61
2019-02-09T21:29:05.665Z,6.58
2019-02-09T21:33:09.120Z,6.51
2019-02-09T21:37:12.585Z,6.44
2019-02-09T21:41:16.044Z,6.38
2019-02-09T21:45:19.493Z,6.33
2019-02-09T21:49:22.952Z,6.26
2019-02-09T21:53:26.407Z,6.22
2019-02-09T21:57:29.868Z,6.19
2019-02-09T22:01:33.312Z,6.17
2019-02-09T22:05:36.770Z,6.17
2019-02-09T22:09:40.230Z,6.42
2019-02-09T22:13:43.692Z,6.42
2019-02-09T22:17:48.129Z,6.39
2019-02-09T22:21:51.846Z,6.39
2019-02-09T22:25:55.419Z,6.32
2019-02-09T22:29:58.939Z,6.25
2019-02-09T22:34:02.484Z,6.20
2019-02-09T22:38:05.959Z,6.10
2019-02-09T22:42:09.401Z,6.06
2019-02-09T22:46:12.855Z,6.06
2019-02-09T22:50:19.192Z,6.12
2019-02-09T22:54:21.481Z,6.26
2019-02-09T22:58:24.948Z,6.40
2019-02-09T23:02:28.395Z,6.52
2019-02-09T23:06:31.851Z,6.64
2019-02-09T23:10:35.307Z,6.77
2019-02-09T23:14:38.763Z,6.87
2019-02-09T23:18:42.207Z,6.97
2019-02-09T23:22:45.665Z,7.02
2019-02-09T23:26:49.125Z,7.07
2019-02-09T23:30:52.587Z,7.15
2019-02-09T23:34:56.041Z,7.19
2019-02-09T23:38:59.485Z,7.18
2019-02-09T23:43:03.309Z,7.12
2019-02-09T23:47:06.762Z,7.05
2019-02-09T23:51:10.220Z,6.98
2019-02-09T23:55:13.681Z,6.89
2019-02-09T23:59:17.125Z,6.85
